Time;durP1;ratioP1;P1;durP2;ratioP2;P2;SDS_P1;SDS_P2;PMS_P1;PMS_P2;Temp;Humidity;BMP_temperature;BMP_pressure;BME280_temperature;BME280_humidity;BME280_pressure;Samples;Min_cycle;Max_cycle;Signal;HPM_P1;HPM_P2
2024/04/16 00:00:22;;;;;;;6.75;1.08;;;16.80;99.90;;;;;;6524933;22;20005;-94
2024/04/16 00:02:52;;;;;;;5.75;0.73;;;16.60;99.90;;;;;;6483078;22;20012;-95
2024/04/16 00:05:23;;;;;;;3.40;0.60;;;16.70;99.90;;;;;;6525351;22;20013;-95
2024/04/16 00:07:54;;;;;;;6.40;0.55;;;16.70;99.90;;;;;;6526908;22;20033;-96
2024/04/16 00:10:22;;;;;;;2.75;0.35;;;16.80;99.90;;;;;;6526468;22;20033;-96
2024/04/16 00:12:52;;;;;;;8.82;0.75;;;16.60;99.90;;;;;;6526922;22;20009;-95
2024/04/16 00:15:42;;;;;;;4.85;0.68;;;16.50;99.90;;;;;;6480111;22;20025;-95
2024/04/16 00:18:10;;;;;;;4.18;0.30;;;16.40;99.90;;;;;;6524152;22;19997;-95
2024/04/16 00:20:44;;;;;;;3.35;0.30;;;16.40;99.90;;;;;;6524353;22;20026;-96
2024/04/16 00:23:11;;;;;;;6.97;0.40;;;16.50;99.90;;;;;;6527027;22;20001;-95
2024/04/16 00:25:42;;;;;;;3.42;0.40;;;16.60;99.90;;;;;;6524373;22;20041;-95
2024/04/16 00:28:10;;;;;;;3.70;0.30;;;16.60;99.90;;;;;;6524741;22;20001;-95
2024/04/16 00:30:41;;;;;;;4.07;0.60;;;16.70;99.90;;;;;;6526160;22;20266;-95
2024/04/16 00:33:09;;;;;;;6.78;0.50;;;16.60;99.90;;;;;;6524181;22;20001;-95
2024/04/16 00:35:42;;;;;;;4.63;0.60;;;16.50;99.90;;;;;;6481462;22;20005;-96
2024/04/16 00:38:13;;;;;;;2.55;0.80;;;16.50;99.90;;;;;;6523566;22;20530;-94
2024/04/16 00:40:44;;;;;;;2.60;0.43;;;16.50;99.90;;;;;;6525487;22;20345;-95
2024/04/16 00:43:22;;;;;;;3.08;0.50;;;16.40;99.90;;;;;;6471817;22;20302;-94
2024/04/16 00:45:55;;;;;;;3.47;0.65;;;16.50;99.90;;;;;;6523603;22;20029;-94
2024/04/16 00:48:24;;;;;;;3.10;0.40;;;16.40;99.90;;;;;;6525414;21;20005;-94
2024/04/16 00:50:57;;;;;;;5.53;0.80;;;16.50;99.90;;;;;;6525755;22;20008;-95
2024/04/16 00:53:27;;;;;;;6.57;1.45;;;16.50;99.90;;;;;;6524689;22;20001;-94
2024/04/16 00:55:59;;;;;;;3.10;0.60;;;16.50;99.90;;;;;;6526650;22;20076;-95
2024/04/16 00:58:29;;;;;;;4.38;0.50;;;16.50;99.90;;;;;;6481176;22;20072;-95
2024/04/16 01:01:00;;;;;;;3.13;0.57;;;16.50;99.90;;;;;;6523726;22;19997;-96
2024/04/16 01:03:28;;;;;;;4.13;0.80;;;16.50;99.90;;;;;;6522749;22;20005;-95
2024/04/16 01:05:58;;;;;;;5.43;0.77;;;16.50;99.90;;;;;;6521468;22;20001;-95
2024/04/16 01:08:29;;;;;;;2.83;0.73;;;16.50;99.90;;;;;;6516453;22;20008;-95
2024/04/16 01:10:59;;;;;;;5.38;0.50;;;16.50;99.90;;;;;;6481262;22;20011;-94
2024/04/16 01:13:27;;;;;;;4.22;1.17;;;16.40;99.90;;;;;;6525601;22;20040;-94
2024/04/16 01:15:58;;;;;;;3.65;0.60;;;16.40;99.90;;;;;;6523632;22;20088;-93
2024/04/16 01:18:26;;;;;;;3.63;0.52;;;16.30;99.90;;;;;;6524682;22;20013;-93
2024/04/16 01:20:57;;;;;;;5.78;0.68;;;16.20;99.90;;;;;;6526483;22;20071;-92
2024/04/16 01:23:27;;;;;;;2.97;0.50;;;16.20;99.90;;;;;;6523551;22;20409;-90
2024/04/16 01:25:58;;;;;;;3.42;0.40;;;16.20;99.90;;;;;;6525946;22;20013;-89
2024/04/16 01:28:26;;;;;;;3.33;0.45;;;16.00;99.90;;;;;;6526443;22;20125;-90
2024/04/16 01:30:56;;;;;;;4.15;0.50;;;15.90;99.90;;;;;;6523185;22;20075;-93
2024/04/16 01:33:24;;;;;;;2.80;0.50;;;16.00;99.90;;;;;;6523773;22;19997;-93
2024/04/16 01:35:56;;;;;;;1.73;0.30;;;16.00;99.90;;;;;;6523778;22;20009;-92
2024/04/16 01:38:24;;;;;;;2.85;0.40;;;16.00;99.90;;;;;;6525433;22;20005;-92
2024/04/16 01:40:57;;;;;;;2.60;0.45;;;16.10;99.90;;;;;;6526424;22;20005;-93
2024/04/16 01:43:25;;;;;;;1.08;0.43;;;16.80;99.90;;;;;;6524873;21;20001;-92
2024/04/16 01:45:56;;;;;;;3.17;0.80;;;15.90;99.90;;;;;;6525446;22;20001;-93
2024/04/16 01:48:24;;;;;;;2.38;0.40;;;15.90;99.90;;;;;;6480268;22;20001;-93
2024/04/16 01:50:54;;;;;;;1.85;1.00;;;15.80;99.90;;;;;;6524175;22;20001;-93
2024/04/16 01:53:22;;;;;;;3.25;0.70;;;15.80;99.90;;;;;;6524653;22;20009;-91
2024/04/16 01:55:53;;;;;;;5.88;1.00;;;15.70;99.90;;;;;;6524074;22;20005;-93
2024/04/16 01:58:23;;;;;;;2.17;0.47;;;15.80;99.90;;;;;;6525729;22;20414;-94
2024/04/16 02:01:01;;;;;;;1.77;0.50;;;15.90;99.90;;;;;;6522165;22;20009;-92
2024/04/16 02:03:29;;;;;;;4.20;0.50;;;15.90;99.90;;;;;;6523995;22;20016;-92
2024/04/16 02:06:00;;;;;;;3.05;0.50;;;15.80;99.90;;;;;;6523716;22;20011;-92
2024/04/16 02:08:29;;;;;;;2.75;0.57;;;15.90;99.90;;;;;;6522727;22;19997;-92
2024/04/16 02:11:00;;;;;;;5.30;0.90;;;15.90;99.90;;;;;;6480141;22;20005;-92
2024/04/16 02:13:30;;;;;;;2.55;0.65;;;16.00;99.90;;;;;;6523841;22;19997;-93
2024/04/16 02:16:01;;;;;;;5.68;0.57;;;16.00;99.90;;;;;;6523225;22;20034;-93
2024/04/16 02:18:29;;;;;;;3.47;0.90;;;16.00;99.90;;;;;;6525862;22;20008;-92
2024/04/16 02:21:00;;;;;;;4.45;0.90;;;16.00;99.90;;;;;;6481374;22;20025;-93
2024/04/16 02:23:31;;;;;;;1.88;0.77;;;16.00;99.90;;;;;;6481417;22;20005;-94
2024/04/16 02:25:59;;;;;;;3.38;0.75;;;16.00;99.90;;;;;;6522877;22;20020;-93
2024/04/16 02:28:29;;;;;;;5.47;0.90;;;16.00;99.90;;;;;;6523924;22;19997;-93
2024/04/16 02:31:00;;;;;;;3.97;0.85;;;16.00;99.90;;;;;;6525556;22;20071;-93
2024/04/16 02:33:31;;;;;;;3.03;1.40;;;16.00;99.90;;;;;;6522854;22;20005;-94
2024/04/16 02:36:00;;;;;;;3.10;1.55;;;15.90;99.90;;;;;;6526442;22;20002;-93
2024/04/16 02:38:31;;;;;;;4.28;1.15;;;16.00;99.90;;;;;;6480784;22;20001;-94
2024/04/16 02:40:58;;;;;;;2.00;0.70;;;16.00;99.90;;;;;;6523922;22;20016;-92
2024/04/16 02:43:29;;;;;;;1.58;0.50;;;15.90;99.90;;;;;;6524658;22;20297;-93
2024/04/16 02:45:59;;;;;;;4.22;0.80;;;15.70;99.90;;;;;;6527145;22;20020;-92
2024/04/16 02:48:30;;;;;;;1.90;0.50;;;15.70;99.90;;;;;;6526296;21;19997;-93
2024/04/16 02:51:00;;;;;;;3.30;0.80;;;15.70;99.90;;;;;;6525747;22;20016;-93
2024/04/16 02:53:31;;;;;;;2.78;0.57;;;15.70;99.90;;;;;;6482472;22;20011;-94
2024/04/16 02:55:59;;;;;;;2.70;0.65;;;15.80;99.90;;;;;;6524621;22;20001;-94
2024/04/16 02:58:29;;;;;;;2.15;0.70;;;15.80;99.90;;;;;;6522220;22;20005;-94
2024/04/16 03:01:04;;;;;;;1.58;0.60;;;15.80;99.90;;;;;;6527245;22;20029;-92
2024/04/16 03:03:36;;;;;;;3.42;0.57;;;15.80;99.90;;;;;;6483476;22;20001;-93
2024/04/16 03:06:04;;;;;;;3.95;0.90;;;15.80;99.90;;;;;;6528441;22;20001;-94
2024/04/16 03:08:35;;;;;;;4.40;0.80;;;15.80;99.90;;;;;;6524607;22;20001;-94
2024/04/16 03:11:03;;;;;;;3.22;0.70;;;15.70;99.90;;;;;;6527065;22;20084;-94
2024/04/16 03:13:34;;;;;;;1.27;0.63;;;15.80;99.90;;;;;;6525289;22;20030;-94
2024/04/16 03:16:08;;;;;;;1.83;0.60;;;15.80;99.90;;;;;;6525699;22;20005;-93
2024/04/16 03:18:38;;;;;;;1.52;0.90;;;15.70;99.90;;;;;;6480949;22;20009;-93
2024/04/16 03:21:07;;;;;;;3.28;0.90;;;15.80;99.90;;;;;;6524414;22;20037;-93
2024/04/16 03:23:37;;;;;;;5.82;1.02;;;15.70;99.90;;;;;;6526610;22;20009;-90
2024/04/16 03:26:05;;;;;;;4.35;1.20;;;15.70;99.90;;;;;;6482517;22;20001;-94
2024/04/16 03:28:36;;;;;;;3.85;0.98;;;15.70;99.90;;;;;;6526245;22;19998;-93
2024/04/16 03:31:04;;;;;;;4.05;1.30;;;15.60;99.90;;;;;;6525557;22;20005;-94
2024/04/16 03:33:38;;;;;;;4.90;0.98;;;15.60;99.90;;;;;;6524686;22;20326;-94
2024/04/16 03:36:06;;;;;;;5.65;0.98;;;15.50;99.90;;;;;;6526126;22;20036;-94
2024/04/16 03:38:37;;;;;;;3.95;0.98;;;15.60;99.90;;;;;;6524782;22;20005;-94
2024/04/16 03:41:08;;;;;;;2.03;0.80;;;15.50;99.90;;;;;;6482654;22;20081;-94
2024/04/16 03:43:39;;;;;;;1.95;1.00;;;15.50;99.90;;;;;;6526076;22;20431;-94
2024/04/16 03:46:07;;;;;;;6.28;1.02;;;15.60;99.90;;;;;;6524609;22;20017;-94
2024/04/16 03:48:40;;;;;;;1.85;0.90;;;15.60;99.90;;;;;;6526976;22;20005;-95
2024/04/16 03:51:08;;;;;;;1.80;0.68;;;15.60;99.90;;;;;;6481153;22;20015;-94
2024/04/16 03:53:39;;;;;;;5.82;0.82;;;15.30;99.90;;;;;;6526628;22;20005;-93
2024/04/16 03:56:07;;;;;;;4.35;1.23;;;15.50;99.90;;;;;;6481522;22;20001;-93
2024/04/16 03:58:44;;;;;;;2.97;0.80;;;15.50;99.90;;;;;;6481490;22;20001;-93
2024/04/16 04:01:13;;;;;;;2.88;1.27;;;15.40;99.90;;;;;;6523779;22;20016;-92
2024/04/16 04:03:46;;;;;;;3.17;1.10;;;15.40;99.90;;;;;;6525632;22;20001;-93
2024/04/16 04:06:14;;;;;;;3.47;1.10;;;15.50;99.90;;;;;;6527331;22;20012;-93
2024/04/16 04:08:44;;;;;;;3.33;1.00;;;15.40;99.90;;;;;;6521850;22;20075;-93
2024/04/16 04:11:12;;;;;;;2.33;1.00;;;15.40;99.90;;;;;;6525073;22;20081;-93
2024/04/16 04:13:43;;;;;;;2.20;0.93;;;15.40;99.90;;;;;;6524707;22;20001;-90
2024/04/16 04:16:13;;;;;;;1.45;0.80;;;15.30;99.90;;;;;;6523993;22;20002;-93
2024/04/16 04:18:47;;;;;;;4.20;1.10;;;15.20;99.90;;;;;;6525840;22;20309;-94
2024/04/16 04:21:15;;;;;;;2.88;1.05;;;15.00;99.90;;;;;;6523586;22;20078;-88
2024/04/16 04:23:46;;;;;;;3.25;0.82;;;14.80;99.90;;;;;;6525526;22;20013;-92
2024/04/16 04:26:14;;;;;;;1.92;0.73;;;14.70;99.90;;;;;;6524204;22;20001;-89
2024/04/16 04:28:44;;;;;;;1.83;0.40;;;14.50;99.90;;;;;;6480182;22;20295;-91
2024/04/16 04:31:14;;;;;;;3.90;0.85;;;14.50;99.90;;;;;;6523149;22;20444;-89
2024/04/16 04:33:48;;;;;;;3.28;0.82;;;14.40;99.90;;;;;;6525639;22;20005;-90
2024/04/16 04:36:16;;;;;;;1.65;0.50;;;14.40;99.90;;;;;;6524394;22;20057;-90
2024/04/16 04:38:46;;;;;;;1.55;0.50;;;14.20;99.90;;;;;;6480813;22;20001;-90
2024/04/16 04:41:14;;;;;;;2.15;0.60;;;14.30;99.90;;;;;;6511499;22;19997;-89
2024/04/16 04:43:45;;;;;;;1.48;0.65;;;14.30;99.90;;;;;;6525990;22;20436;-91
2024/04/16 04:46:13;;;;;;;1.38;0.63;;;14.10;99.90;;;;;;6524284;22;20005;-90
2024/04/16 04:48:44;;;;;;;1.42;0.50;;;14.30;99.90;;;;;;6523895;21;20016;-94
2024/04/16 04:51:14;;;;;;;3.35;0.30;;;14.30;99.90;;;;;;6525492;22;20033;-90
2024/04/16 04:53:45;;;;;;;3.55;0.57;;;14.30;99.90;;;;;;6525876;22;20017;-89
2024/04/16 04:56:13;;;;;;;2.33;0.52;;;14.30;99.90;;;;;;6518383;22;20012;-91
2024/04/16 04:58:44;;;;;;;2.20;0.50;;;13.90;99.90;;;;;;6523179;22;20005;-90
2024/04/16 05:01:11;;;;;;;2.60;0.40;;;13.90;99.90;;;;;;6522363;22;20298;-90
2024/04/16 05:03:42;;;;;;;1.50;0.38;;;13.80;99.90;;;;;;6481348;22;20016;-90
2024/04/16 05:06:10;;;;;;;1.58;0.70;;;13.70;99.90;;;;;;6527531;22;20012;-88
2024/04/16 05:08:43;;;;;;;1.70;0.30;;;13.60;99.90;;;;;;6527768;22;20079;-92
2024/04/16 05:11:12;;;;;;;1.83;0.30;;;13.60;99.90;;;;;;6480244;22;20011;-94
2024/04/16 05:13:44;;;;;;;1.05;0.50;;;13.70;99.90;;;;;;6521761;22;20382;-92
2024/04/16 05:16:11;;;;;;;0.50;0.20;;;13.70;99.90;;;;;;6523695;22;20020;-94
2024/04/16 05:18:42;;;;;;;1.02;0.30;;;13.60;99.90;;;;;;6480189;22;20514;-91
2024/04/16 05:21:11;;;;;;;2.75;0.30;;;13.60;99.90;;;;;;6527028;22;20410;-90
2024/04/16 05:23:48;;;;;;;4.00;0.40;;;13.60;99.90;;;;;;6480524;22;20005;-92
2024/04/16 05:26:16;;;;;;;2.35;0.30;;;13.60;99.90;;;;;;6523963;22;20005;-90
2024/04/16 05:28:46;;;;;;;0.88;0.20;;;13.60;99.90;;;;;;6481338;22;20431;-94
2024/04/16 05:31:15;;;;;;;1.83;0.80;;;13.50;99.90;;;;;;6525217;22;19997;-95
2024/04/16 05:33:46;;;;;;;2.10;0.45;;;13.40;99.90;;;;;;6482958;22;20005;-95
2024/04/16 05:36:13;;;;;;;1.77;0.70;;;13.40;99.90;;;;;;6475510;22;20012;-93
2024/04/16 05:38:46;;;;;;;1.38;0.40;;;13.60;99.90;;;;;;6480033;22;20005;-92
2024/04/16 05:41:15;;;;;;;2.63;0.73;;;13.50;99.90;;;;;;6522722;22;20020;-90
2024/04/16 05:43:46;;;;;;;2.88;0.40;;;13.60;99.90;;;;;;6524847;22;19997;-94
2024/04/16 05:46:15;;;;;;;1.98;0.20;;;13.40;99.90;;;;;;6524320;22;20039;-95
2024/04/16 05:48:46;;;;;;;1.55;0.10;;;13.30;99.90;;;;;;6524206;21;20001;-90
2024/04/16 05:51:14;;;;;;;1.98;0.10;;;13.10;99.90;;;;;;6527040;22;20001;-89
2024/04/16 05:53:47;;;;;;;1.55;0.20;;;13.20;99.90;;;;;;6524651;22;19997;-93
2024/04/16 05:56:15;;;;;;;1.30;0.20;;;13.20;99.90;;;;;;6525925;22;20001;-93
2024/04/16 05:58:46;;;;;;;0.82;0.32;;;13.10;99.90;;;;;;6528345;22;19997;-96
2024/04/16 06:01:15;;;;;;;0.60;0.20;;;13.20;99.90;;;;;;6531640;22;20005;-96
2024/04/16 06:03:46;;;;;;;1.38;0.20;;;13.20;99.90;;;;;;6527210;22;20030;-96
2024/04/16 06:06:14;;;;;;;1.15;0.20;;;13.10;99.90;;;;;;6528346;22;20001;-96
2024/04/16 06:08:47;;;;;;;0.95;0.10;;;13.20;99.90;;;;;;6525517;22;20015;-93
2024/04/16 06:11:15;;;;;;;1.00;0.13;;;13.20;99.90;;;;;;6524705;22;20432;-94
2024/04/16 06:13:46;;;;;;;1.48;0.10;;;13.10;99.90;;;;;;6525701;22;20005;-95
2024/04/16 06:16:14;;;;;;;0.63;0.10;;;13.00;99.90;;;;;;6524500;22;20011;-94
2024/04/16 06:18:45;;;;;;;0.60;0.10;;;12.80;99.90;;;;;;6482818;22;20015;-92
2024/04/16 06:21:12;;;;;;;1.65;0.17;;;12.90;99.90;;;;;;6528028;22;20001;-95
2024/04/16 06:23:43;;;;;;;2.92;0.22;;;13.00;99.90;;;;;;6527406;22;19997;-93
2024/04/16 06:26:14;;;;;;;1.50;0.20;;;12.90;99.90;;;;;;6527619;22;20008;-91
2024/04/16 06:28:44;;;;;;;2.10;0.20;;;12.90;99.90;;;;;;6522945;22;20921;-96
2024/04/16 06:31:12;;;;;;;2.58;0.10;;;12.60;99.90;;;;;;6479968;22;20024;-96
2024/04/16 06:33:46;;;;;;;1.05;0.10;;;12.70;99.90;;;;;;6519749;22;20009;-92
2024/04/16 06:36:14;;;;;;;1.40;0.20;;;12.90;99.90;;;;;;6527472;22;20005;-95
2024/04/16 06:38:46;;;;;;;1.40;0.20;;;12.80;99.90;;;;;;6481842;22;20005;-96
2024/04/16 06:41:16;;;;;;;1.77;0.10;;;12.90;99.90;;;;;;6526569;22;20005;-94
2024/04/16 06:43:47;;;;;;;1.40;0.20;;;12.70;99.90;;;;;;6528987;22;20228;-93
2024/04/16 06:46:15;;;;;;;0.88;0.20;;;12.70;99.90;;;;;;6528314;22;20001;-94
2024/04/16 06:48:47;;;;;;;3.28;0.35;;;12.70;99.90;;;;;;6477239;22;20006;-94
2024/04/16 06:51:31;;;;;;;1.90;0.40;;;12.50;99.90;;;;;;6475157;22;20375;-91
2024/04/16 06:54:01;;;;;;;1.05;0.25;;;12.60;99.90;;;;;;6476186;22;20012;-95
2024/04/16 06:56:32;;;;;;;1.55;0.30;;;12.60;99.90;;;;;;6475987;22;19998;-93
2024/04/16 06:59:03;;;;;;;2.00;0.40;;;12.40;99.90;;;;;;6431096;22;20017;-91
2024/04/16 07:01:34;;;;;;;1.33;0.20;;;12.40;99.90;;;;;;6474656;22;20072;-93
2024/04/16 07:04:02;;;;;;;1.08;0.10;;;12.30;99.90;;;;;;6428251;22;20083;-92
2024/04/16 07:06:32;;;;;;;0.80;0.20;;;12.40;99.90;;;;;;6476182;22;20506;-94
2024/04/16 07:09:00;;;;;;;2.55;0.30;;;12.30;99.90;;;;;;6472970;22;20010;-93
2024/04/16 07:11:38;;;;;;;1.97;0.20;;;12.30;99.90;;;;;;6472861;22;20378;-93
2024/04/16 07:14:05;;;;;;;2.72;0.50;;;12.30;99.90;;;;;;6430424;22;20318;-93
2024/04/16 07:16:36;;;;;;;0.70;0.20;;;12.50;99.90;;;;;;6416574;22;20077;-92
2024/04/16 07:19:04;;;;;;;1.00;0.30;;;12.40;99.90;;;;;;6471982;22;20080;-91
2024/04/16 07:21:37;;;;;;;1.75;0.38;;;12.30;99.90;;;;;;6475535;22;20398;-91
2024/04/16 07:24:05;;;;;;;4.50;3.50;;;12.30;99.90;;;;;;6471907;22;20001;-94
2024/04/16 07:26:39;;;;;;;3.83;2.45;;;12.30;99.90;;;;;;6475566;22;20009;-91
2024/04/16 07:29:06;;;;;;;24.45;13.27;;;12.20;99.90;;;;;;6472994;22;20010;-93
2024/04/16 07:31:37;;;;;;;8.52;2.00;;;12.20;99.90;;;;;;6430580;22;19998;-93
2024/04/16 07:34:14;;;;;;;13.68;5.15;;;12.20;99.90;;;;;;6473939;22;20017;-92
2024/04/16 07:36:44;;;;;;;3.67;0.77;;;12.00;99.90;;;;;;6473562;22;20017;-90
2024/04/16 07:39:12;;;;;;;2.13;0.73;;;12.00;99.90;;;;;;6473032;22;20017;-92
2024/04/16 07:41:47;;;;;;;6.25;1.42;;;11.80;99.90;;;;;;6473984;22;19998;-92
2024/04/16 07:44:17;;;;;;;5.28;2.38;;;11.80;99.90;;;;;;6474977;22;20021;-92
2024/04/16 07:46:47;;;;;;;2.72;0.30;;;11.90;99.90;;;;;;6474942;22;20017;-90
2024/04/16 07:49:16;;;;;;;1.90;0.20;;;11.70;99.90;;;;;;6465107;22;20006;-89
2024/04/16 07:51:46;;;;;;;1.88;0.30;;;11.60;99.90;;;;;;6472604;22;20013;-93
2024/04/16 07:54:17;;;;;;;2.10;0.80;;;11.60;99.90;;;;;;6500690;22;20010;-92
2024/04/16 07:56:50;;;;;;;1.33;0.60;;;11.40;99.90;;;;;;6472563;22;20002;-91
2024/04/16 07:59:21;;;;;;;1.13;0.52;;;11.00;99.90;;;;;;6510335;22;20434;-89
2024/04/16 08:01:49;;;;;;;0.75;0.10;;;10.90;99.90;;;;;;6469570;22;20002;-93
2024/04/16 08:04:19;;;;;;;2.95;0.50;;;10.90;99.90;;;;;;6513678;22;20005;-90
2024/04/16 08:06:48;;;;;;;1.42;0.20;;;11.00;99.90;;;;;;6473726;22;20029;-91
2024/04/16 08:09:19;;;;;;;0.90;0.10;;;10.80;99.90;;;;;;6471582;22;20005;-87
2024/04/16 08:11:49;;;;;;;0.77;0.10;;;11.00;99.90;;;;;;6473143;22;20001;-89
2024/04/16 08:14:21;;;;;;;2.42;0.20;;;11.10;99.90;;;;;;6473967;22;20026;-88
2024/04/16 08:16:49;;;;;;;1.58;0.43;;;11.20;99.90;;;;;;6469725;22;20079;-90
2024/04/16 08:19:21;;;;;;;0.40;0.10;;;11.20;99.90;;;;;;6470651;22;20020;-88
2024/04/16 08:21:50;;;;;;;0.50;0.10;;;11.00;99.90;;;;;;6469649;22;20018;-89
2024/04/16 08:24:26;;;;;;;0.43;0.10;;;10.90;99.90;;;;;;6473237;22;20009;-88
2024/04/16 08:26:57;;;;;;;0.32;0.10;;;10.90;99.90;;;;;;6470760;22;20071;-90
2024/04/16 08:29:27;;;;;;;0.70;0.20;;;10.80;99.90;;;;;;6510552;22;20005;-87
2024/04/16 08:31:55;;;;;;;0.75;0.10;;;10.90;99.90;;;;;;6512544;22;20019;-89
2024/04/16 08:34:25;;;;;;;0.40;0.13;;;10.80;99.90;;;;;;6472812;22;20016;-92
2024/04/16 08:36:54;;;;;;;0.98;0.20;;;11.00;99.90;;;;;;6473277;22;20002;-87
2024/04/16 08:39:24;;;;;;;0.98;0.20;;;11.10;99.90;;;;;;6514342;22;20085;-91
2024/04/16 08:41:53;;;;;;;0.95;0.28;;;11.10;99.90;;;;;;6471407;22;19997;-92
2024/04/16 08:44:26;;;;;;;3.10;2.17;;;11.20;99.90;;;;;;6473393;22;20006;-89
2024/04/16 08:46:57;;;;;;;1.42;0.77;;;11.30;99.90;;;;;;6473023;22;20087;-91
2024/04/16 08:49:31;;;;;;;3.13;1.50;;;11.20;99.90;;;;;;6471192;22;20013;-94
2024/04/16 08:52:00;;;;;;;2.85;0.88;;;11.10;99.90;;;;;;6512448;22;19998;-89
2024/04/16 08:54:31;;;;;;;3.20;0.70;;;11.10;99.90;;;;;;6512038;22;20018;-90
2024/04/16 08:57:00;;;;;;;1.77;0.40;;;11.10;99.90;;;;;;6515036;22;20013;-89
2024/04/16 08:59:34;;;;;;;1.95;0.75;;;10.90;99.90;;;;;;6472255;22;20057;-90
2024/04/16 09:02:02;;;;;;;2.28;0.20;;;10.90;99.90;;;;;;6514195;22;20012;-89
2024/04/16 09:04:39;;;;;;;1.85;0.63;;;10.70;99.90;;;;;;6474855;22;20021;-93
2024/04/16 09:07:09;;;;;;;1.38;0.20;;;10.60;99.90;;;;;;6471803;22;20021;-89
2024/04/16 09:09:40;;;;;;;1.02;0.20;;;10.50;99.90;;;;;;6471151;22;20017;-87
2024/04/16 09:12:08;;;;;;;2.10;0.20;;;10.50;99.90;;;;;;6509912;22;20012;-91
2024/04/16 09:14:41;;;;;;;0.70;0.20;;;10.40;99.90;;;;;;6469851;22;20006;-90
2024/04/16 09:17:13;;;;;;;8.98;0.32;;;10.40;99.90;;;;;;6511588;22;20072;-91
2024/04/16 09:19:44;;;;;;;1.33;0.40;;;10.30;99.90;;;;;;6514874;22;20043;-91
2024/04/16 09:22:12;;;;;;;0.93;0.38;;;10.40;99.90;;;;;;6513731;22;20015;-91
2024/04/16 09:24:43;;;;;;;0.55;0.10;;;10.70;99.90;;;;;;6513898;22;20505;-89
2024/04/16 09:27:11;;;;;;;3.45;0.60;;;10.20;99.90;;;;;;6514127;22;20120;-90
2024/04/16 09:29:44;;;;;;;0.85;0.20;;;10.00;99.90;;;;;;6473295;22;19998;-89
2024/04/16 09:32:12;;;;;;;1.92;0.10;;;9.90;99.90;;;;;;6514777;22;20381;-90
2024/04/16 09:34:45;;;;;;;0.98;0.10;;;10.00;99.90;;;;;;6473470;22;20085;-90
2024/04/16 09:37:19;;;;;;;0.73;0.10;;;9.60;99.90;;;;;;6514091;22;20012;-89
2024/04/16 09:39:52;;;;;;;0.57;0.10;;;9.80;99.90;;;;;;6515782;22;20001;-91
2024/04/16 09:42:21;;;;;;;1.48;0.00;;;9.60;99.90;;;;;;6474069;22;20108;-91
2024/04/16 09:44:55;;;;;;;0.63;0.22;;;9.70;99.90;;;;;;6514759;22;20005;-85
2024/04/16 09:47:24;;;;;;;0.20;0.00;;;9.70;99.90;;;;;;6479186;21;20354;-92
2024/04/16 09:49:56;;;;;;;0.47;0.08;;;9.80;99.90;;;;;;6522360;22;20017;-91
2024/04/16 09:52:44;;;;;;;1.50;0.10;;;9.70;99.90;;;;;;6520125;22;20009;-92
2024/04/16 09:55:17;;;;;;;0.50;0.10;;;9.80;99.90;;;;;;6479717;22;20056;-91
2024/04/16 09:57:46;;;;;;;0.73;0.30;;;9.80;99.90;;;;;;6526408;22;20618;-91
2024/04/16 10:00:23;;;;;;;1.15;0.30;;;9.70;99.90;;;;;;6523933;22;20425;-90
2024/04/16 10:02:54;;;;;;;5.70;1.35;;;9.50;99.90;;;;;;6522774;22;20005;-91
2024/04/16 10:05:25;;;;;;;0.98;0.10;;;9.70;99.90;;;;;;6523123;22;20008;-90
2024/04/16 10:07:52;;;;;;;0.93;0.10;;;9.70;99.90;;;;;;6523543;22;20001;-90
2024/04/16 10:10:23;;;;;;;2.13;0.10;;;9.60;99.90;;;;;;6522300;22;20034;-91
2024/04/16 10:12:51;;;;;;;11.00;2.40;;;9.50;99.90;;;;;;6523347;22;19997;-91
2024/04/16 10:15:24;;;;;;;1.85;0.10;;;9.30;99.90;;;;;;6523267;22;19997;-89
2024/04/16 10:17:53;;;;;;;1.50;0.35;;;9.20;99.90;;;;;;6523197;22;20011;-89
2024/04/16 10:20:24;;;;;;;7.35;3.38;;;9.30;99.90;;;;;;6523672;22;20704;-92
2024/04/16 10:22:57;;;;;;;4.45;1.85;;;9.40;99.90;;;;;;6520584;22;20016;-89
2024/04/16 10:25:32;;;;;;;7.60;2.45;;;9.30;99.90;;;;;;6520449;22;20093;-90
2024/04/16 10:28:02;;;;;;;10.05;3.10;;;9.40;99.90;;;;;;6521451;22;20021;-91
2024/04/16 10:30:39;;;;;;;5.35;0.50;;;9.40;99.90;;;;;;6476922;22;20001;-90
2024/04/16 10:33:11;;;;;;;8.32;2.58;;;9.50;99.90;;;;;;6520257;22;20001;-90
2024/04/16 10:35:41;;;;;;;6.05;1.75;;;9.40;99.90;;;;;;6521550;22;20005;-91
2024/04/16 10:38:09;;;;;;;5.38;1.35;;;9.20;99.90;;;;;;6521486;22;20007;-91
2024/04/16 10:40:40;;;;;;;5.57;1.65;;;9.40;99.90;;;;;;6522328;22;20001;-90
2024/04/16 10:43:09;;;;;;;6.13;2.05;;;9.30;99.90;;;;;;6521440;22;20389;-91
2024/04/16 10:45:46;;;;;;;7.20;2.15;;;9.50;99.90;;;;;;6521828;22;20007;-89
2024/04/16 10:48:17;;;;;;;6.78;1.45;;;9.40;99.90;;;;;;6523410;22;20025;-92
2024/04/16 10:50:47;;;;;;;3.05;0.77;;;9.50;99.90;;;;;;6521808;22;20017;-91
2024/04/16 10:53:18;;;;;;;5.45;2.17;;;9.50;99.90;;;;;;6522504;22;20005;-92
2024/04/16 10:55:49;;;;;;;1.50;0.57;;;9.50;99.90;;;;;;6521679;22;20005;-91
2024/04/16 10:58:18;;;;;;;6.00;2.65;;;9.50;99.90;;;;;;6523031;22;19997;-90
2024/04/16 11:00:55;;;;;;;2.17;0.60;;;9.30;99.90;;;;;;6522521;22;19997;-91
2024/04/16 11:03:23;;;;;;;2.05;0.68;;;9.30;99.90;;;;;;6523250;22;20001;-87
2024/04/16 11:05:54;;;;;;;2.05;0.30;;;9.30;99.90;;;;;;6524357;22;19997;-88
2024/04/16 11:08:21;;;;;;;5.20;0.82;;;9.30;99.90;;;;;;6523621;22;20013;-89
2024/04/16 11:10:52;;;;;;;2.85;0.55;;;9.10;99.90;;;;;;6524818;22;20004;-89
2024/04/16 11:13:21;;;;;;;4.25;1.33;;;9.40;99.90;;;;;;6524901;22;20029;-92
2024/04/16 11:15:54;;;;;;;2.67;1.17;;;9.60;99.90;;;;;;6520813;22;20005;-91
2024/04/16 11:18:22;;;;;;;1.92;0.43;;;9.70;99.90;;;;;;6480190;22;20001;-91
2024/04/16 11:20:54;;;;;;;1.50;0.57;;;9.70;99.90;;;;;;6523528;22;20418;-89
2024/04/16 11:23:21;;;;;;;1.17;0.10;;;10.00;99.90;;;;;;6519624;22;20001;-89
2024/04/16 11:25:52;;;;;;;1.15;0.30;;;9.80;99.90;;;;;;6522702;22;20001;-87
2024/04/16 11:28:20;;;;;;;0.45;0.20;;;9.70;99.90;;;;;;6523349;22;19997;-88
2024/04/16 11:31:01;;;;;;;1.02;0.17;;;9.60;99.90;;;;;;6479295;22;20052;-88
2024/04/16 11:33:29;;;;;;;0.70;0.15;;;9.90;99.90;;;;;;6522518;22;20011;-89
2024/04/16 11:36:08;;;;;;;1.85;0.20;;;9.90;99.90;;;;;;6481345;22;20001;-89
2024/04/16 11:38:40;;;;;;;2.33;0.30;;;9.90;99.90;;;;;;6525553;22;20418;-89
2024/04/16 11:41:13;;;;;;;3.30;0.73;;;9.90;99.90;;;;;;6479764;22;20002;-90
2024/04/16 11:43:41;;;;;;;2.45;0.88;;;9.50;99.90;;;;;;6522215;22;20001;-90
2024/04/16 11:46:17;;;;;;;0.98;0.40;;;9.40;99.90;;;;;;6523262;22;20493;-89
2024/04/16 11:48:48;;;;;;;1.60;0.30;;;9.90;99.90;;;;;;6524286;22;20001;-90
2024/04/16 11:51:19;;;;;;;1.05;0.40;;;10.00;99.90;;;;;;6519392;22;20430;-91
2024/04/16 11:53:47;;;;;;;0.93;0.30;;;9.90;99.90;;;;;;6519428;22;20503;-90
2024/04/16 11:56:18;;;;;;;0.55;0.28;;;9.70;99.90;;;;;;6518038;22;20012;-89
2024/04/16 11:58:46;;;;;;;0.75;0.20;;;9.50;99.90;;;;;;6522522;22;20001;-87
2024/04/16 12:01:19;;;;;;;0.22;0.10;;;9.40;99.90;;;;;;6521705;22;20001;-89
2024/04/16 12:03:47;;;;;;;0.73;0.47;;;9.40;99.90;;;;;;6526474;22;19993;-91
2024/04/16 12:06:17;;;;;;;6.28;1.90;;;9.40;99.90;;;;;;6526259;22;20029;-90
2024/04/16 12:08:45;;;;;;;0.65;0.20;;;9.20;99.90;;;;;;6527367;22;20025;-90
2024/04/16 12:11:16;;;;;;;2.05;0.13;;;9.00;99.90;;;;;;6522983;22;20037;-91
2024/04/16 12:13:44;;;;;;;1.40;0.25;;;9.00;99.90;;;;;;6523888;22;20001;-89
2024/04/16 12:16:14;;;;;;;1.30;0.45;;;9.00;99.90;;;;;;6522625;22;20084;-86
2024/04/16 12:18:45;;;;;;;1.42;0.30;;;9.10;99.90;;;;;;6524596;22;20408;-90
2024/04/16 12:21:16;;;;;;;0.65;0.10;;;9.00;99.90;;;;;;6524296;22;20015;-88
2024/04/16 12:23:47;;;;;;;1.27;0.45;;;8.80;99.90;;;;;;6523531;22;20013;-90
2024/04/16 12:26:18;;;;;;;1.67;0.17;;;9.00;99.90;;;;;;6527251;22;19998;-90
2024/04/16 12:28:47;;;;;;;2.00;0.80;;;8.80;99.90;;;;;;6482663;22;20002;-89
2024/04/16 12:31:18;;;;;;;2.45;0.70;;;8.90;99.90;;;;;;6526349;22;20011;-90
2024/04/16 12:33:48;;;;;;;1.15;0.10;;;8.80;99.90;;;;;;6526286;22;20055;-88
2024/04/16 12:36:19;;;;;;;1.17;0.30;;;8.90;99.90;;;;;;6524003;22;20005;-85
2024/04/16 12:38:47;;;;;;;1.05;0.20;;;8.80;99.90;;;;;;6524622;22;20001;-88
2024/04/16 12:41:18;;;;;;;2.15;0.30;;;9.00;99.90;;;;;;6524408;22;20016;-88
2024/04/16 12:43:46;;;;;;;0.70;0.20;;;9.20;99.90;;;;;;6524640;22;20033;-89
2024/04/16 12:46:16;;;;;;;2.42;0.35;;;9.00;99.90;;;;;;6523620;22;20075;-90
2024/04/16 12:48:44;;;;;;;1.02;0.57;;;9.10;99.90;;;;;;6480342;22;19997;-91
2024/04/16 12:51:18;;;;;;;1.60;0.22;;;9.00;99.90;;;;;;6524881;22;20666;-85
2024/04/16 12:53:45;;;;;;;1.42;0.20;;;8.90;99.90;;;;;;6524918;22;20022;-88
2024/04/16 12:56:16;;;;;;;1.10;0.35;;;9.10;99.90;;;;;;6513714;22;20005;-86
2024/04/16 12:58:44;;;;;;;0.35;0.10;;;9.00;99.90;;;;;;6520756;22;20001;-89
2024/04/16 13:01:14;;;;;;;1.42;0.20;;;8.90;99.90;;;;;;6473577;22;20774;-88
2024/04/16 13:03:42;;;;;;;1.75;0.40;;;9.00;99.90;;;;;;6516546;22;20012;-89
2024/04/16 13:06:12;;;;;;;1.50;0.30;;;9.00;99.90;;;;;;6521270;22;20028;-87